Time;durP1;ratioP1;P1;durP2;ratioP2;P2;SDS_P1;SDS_P2;PMS_P1;PMS_P2;Temp;Humidity;BMP_temperature;BMP_pressure;BME280_temperature;BME280_humidity;BME280_pressure;Samples;Min_cycle;Max_cycle;Signal;HPM_P1;HPM_P2
2021/04/12 00:01:36;;;;;;;131.18;77.55;;;18.20;66.20;;;;;;5094003;28;20052;-62
2021/04/12 00:04:09;;;;;;;235.73;131.27;;;18.20;66.70;;;;;;5091857;28;20020;-62
2021/04/12 00:06:51;;;;;;;313.15;168.95;;;18.20;66.60;;;;;;5094063;28;20103;-63
2021/04/12 00:09:27;;;;;;;253.93;148.57;;;18.10;66.60;;;;;;5093909;28;20028;-63
2021/04/12 00:12:09;;;;;;;287.90;162.38;;;18.10;66.60;;;;;;5092155;28;20077;-67
2021/04/12 00:14:46;;;;;;;307.63;171.85;;;18.10;66.60;;;;;;5091086;28;20035;-64
2021/04/12 00:17:22;;;;;;;312.98;177.85;;;18.10;66.30;;;;;;5093788;28;20380;-62
2021/04/12 00:19:55;;;;;;;277.90;158.60;;;18.10;66.40;;;;;;5092206;28;20493;-63
2021/04/12 00:22:27;;;;;;;276.10;156.45;;;18.00;66.70;;;;;;5091102;28;20464;-63
2021/04/12 00:24:56;;;;;;;267.05;151.20;;;18.00;67.10;;;;;;5093820;28;20065;-63
2021/04/12 00:27:57;;;;;;;249.63;139.52;;;18.10;66.80;;;;;;5091191;28;20042;-63
2021/04/12 00:30:26;;;;;;;222.48;125.07;;;18.10;66.50;;;;;;5094386;28;20044;-63
2021/04/12 00:33:01;;;;;;;197.82;111.10;;;18.10;65.60;;;;;;5093970;28;20081;-63
2021/04/12 00:35:42;;;;;;;196.45;112.43;;;18.10;65.20;;;;;;5094384;28;20506;-62
2021/04/12 00:38:14;;;;;;;168.80;99.57;;;18.10;65.30;;;;;;5093336;28;20024;-63
2021/04/12 00:40:44;;;;;;;170.73;99.57;;;18.10;64.90;;;;;;5093397;28;20067;-63
2021/04/12 00:43:27;;;;;;;163.07;94.67;;;18.00;65.50;;;;;;5093226;28;20074;-62
2021/04/12 00:46:12;;;;;;;162.98;93.07;;;18.00;65.20;;;;;;5091467;28;20026;-63
2021/04/12 00:49:02;;;;;;;165.75;94.60;;;17.90;65.10;;;;;;5093932;28;20030;-63
2021/04/12 00:51:59;;;;;;;162.80;93.70;;;17.90;65.20;;;;;;5091375;28;20032;-63
2021/04/12 00:54:40;;;;;;;154.80;93.53;;;17.90;65.30;;;;;;5092831;28;20043;-62
2021/04/12 00:57:44;;;;;;;156.68;93.20;;;17.90;65.20;;;;;;5093258;28;20016;-62
2021/04/12 01:00:23;;;;;;;157.93;88.70;;;17.80;65.30;;;;;;5093284;28;20032;-62
2021/04/12 01:03:12;;;;;;;151.43;88.20;;;17.80;65.40;;;;;;5091969;28;20384;-62
2021/04/12 01:05:50;;;;;;;149.68;88.78;;;17.80;65.40;;;;;;5092492;28;20036;-62
2021/04/12 01:08:49;;;;;;;147.25;86.35;;;17.70;65.70;;;;;;5094472;28;20043;-62
2021/04/12 01:11:33;;;;;;;151.70;85.65;;;17.70;65.60;;;;;;5093505;28;20032;-62
2021/04/12 01:14:14;;;;;;;146.65;82.82;;;17.70;66.30;;;;;;5093647;28;20032;-62
2021/04/12 01:17:14;;;;;;;148.25;82.57;;;17.70;66.30;;;;;;5093914;28;20364;-62
2021/04/12 01:20:17;;;;;;;148.23;83.43;;;17.70;66.30;;;;;;5093531;28;20066;-62
2021/04/12 01:22:45;;;;;;;138.50;79.50;;;17.60;66.50;;;;;;5093244;28;20055;-62
2021/04/12 01:25:41;;;;;;;138.45;82.25;;;17.70;66.50;;;;;;5094087;28;20054;-62
2021/04/12 01:28:31;;;;;;;132.50;77.10;;;17.70;66.10;;;;;;5093614;28;20111;-62
2021/04/12 01:31:13;;;;;;;136.20;78.90;;;17.80;66.00;;;;;;5093532;28;20369;-63
2021/04/12 01:34:16;;;;;;;127.70;75.05;;;17.80;65.90;;;;;;5093689;28;20024;-63
2021/04/12 01:36:52;;;;;;;130.45;74.97;;;17.80;65.80;;;;;;5093231;28;20081;-63
2021/04/12 01:39:29;;;;;;;124.70;75.35;;;17.80;65.90;;;;;;5093201;28;20024;-63
2021/04/12 01:42:00;;;;;;;129.27;74.97;;;17.80;65.90;;;;;;5093224;28;20036;-63
2021/04/12 01:44:28;;;;;;;;;;;17.70;65.90;;;;;;5094178;28;20032;-62
2021/04/12 01:47:17;;;;;;;125.32;70.82;;;17.70;66.80;;;;;;5093285;28;19964;-62
2021/04/12 01:50:06;;;;;;;126.70;71.53;;;17.60;66.10;;;;;;5092029;28;20021;-63
2021/04/12 01:52:47;;;;;;;120.88;70.20;;;17.60;66.00;;;;;;5093586;28;20028;-62
2021/04/12 01:55:21;;;;;;;113.78;68.00;;;17.60;66.10;;;;;;5093350;28;20020;-62
2021/04/12 01:58:21;;;;;;;115.03;68.13;;;17.60;66.20;;;;;;5093261;28;20036;-62
2021/04/12 02:01:01;;;;;;;113.85;68.07;;;17.60;66.10;;;;;;5092935;28;20491;-63
2021/04/12 02:03:26;;;;;;;124.25;70.28;;;17.60;66.10;;;;;;5095486;28;20032;-62
2021/04/12 02:06:01;;;;;;;116.35;67.07;;;17.60;66.30;;;;;;5096824;28;20380;-63
2021/04/12 02:09:04;;;;;;;113.90;67.70;;;17.60;66.20;;;;;;5096742;28;20035;-63
2021/04/12 02:11:33;;;;;;;117.03;66.80;;;17.50;66.20;;;;;;5096750;28;20081;-63
2021/04/12 02:14:23;;;;;;;105.18;62.08;;;17.50;66.10;;;;;;5096589;28;20020;-63
2021/04/12 02:17:31;;;;;;;109.28;62.53;;;17.50;66.40;;;;;;5096414;28;20031;-63
2021/04/12 02:20:08;;;;;;;111.55;64.63;;;17.40;66.30;;;;;;5096700;28;20040;-63
2021/04/12 02:23:05;;;;;;;102.68;61.10;;;17.40;66.90;;;;;;5096551;28;20411;-62
2021/04/12 02:25:37;;;;;;;105.25;62.25;;;17.50;67.00;;;;;;5096467;28;20460;-63
2021/04/12 02:28:29;;;;;;;103.63;61.58;;;17.50;66.60;;;;;;5096793;28;20035;-62
2021/04/12 02:31:04;;;;;;;98.35;59.78;;;17.50;66.60;;;;;;5096225;28;20109;-62
2021/04/12 02:33:42;;;;;;;104.57;57.97;;;17.60;66.60;;;;;;5096457;28;20067;-63
2021/04/12 02:36:12;;;;;;;97.43;58.83;;;17.60;66.50;;;;;;5096056;28;20031;-63
2021/04/12 02:39:00;;;;;;;104.10;61.03;;;17.60;66.50;;;;;;5096198;28;20077;-62
2021/04/12 02:41:58;;;;;;;96.45;56.22;;;17.50;66.30;;;;;;5096133;28;20074;-62
2021/04/12 02:44:48;;;;;;;93.20;55.42;;;17.50;66.30;;;;;;5096116;28;20115;-63
2021/04/12 02:47:47;;;;;;;92.17;53.83;;;17.50;66.40;;;;;;5096072;28;20461;-62
2021/04/12 02:50:20;;;;;;;90.50;53.30;;;17.40;66.60;;;;;;5096221;28;20282;-63
2021/04/12 02:52:58;;;;;;;99.70;56.63;;;17.40;66.70;;;;;;5096020;28;20108;-62
2021/04/12 02:55:41;;;;;;;96.72;54.83;;;17.40;66.80;;;;;;5095855;28;20476;-62
2021/04/12 02:58:28;;;;;;;89.97;55.42;;;17.40;66.70;;;;;;5095868;28;20035;-63
2021/04/12 03:01:08;;;;;;;90.72;53.30;;;17.40;66.80;;;;;;5095893;28;20068;-63
2021/04/12 03:03:47;;;;;;;89.28;49.92;;;17.40;66.80;;;;;;5095913;28;20098;-63
2021/04/12 03:06:22;;;;;;;91.43;50.28;;;17.30;66.70;;;;;;5095823;28;20063;-62
2021/04/12 03:08:47;;;;;;;86.30;49.78;;;17.30;66.80;;;;;;5095644;28;20024;-63
2021/04/12 03:11:38;;;;;;;83.38;48.65;;;17.30;67.00;;;;;;5095632;28;20043;-62
2021/04/12 03:14:21;;;;;;;83.10;48.15;;;17.30;66.90;;;;;;5094704;28;20048;-63
2021/04/12 03:17:21;;;;;;;82.90;47.75;;;17.30;67.10;;;;;;5095524;28;20115;-62
2021/04/12 03:20:21;;;;;;;81.95;48.90;;;17.30;66.90;;;;;;5095426;28;20039;-63
2021/04/12 03:22:59;;;;;;;81.57;46.40;;;17.30;67.50;;;;;;5094788;28;20040;-63
2021/04/12 03:25:30;;;;;;;81.60;47.30;;;17.30;67.60;;;;;;5095028;28;20027;-63
2021/04/12 03:28:08;;;;;;;82.88;48.53;;;17.30;67.30;;;;;;5095178;28;20051;-62
2021/04/12 03:31:04;;;;;;;75.43;46.70;;;17.30;67.20;;;;;;5095045;28;20507;-62
2021/04/12 03:33:48;;;;;;;74.45;43.17;;;17.40;67.30;;;;;;5095252;28;20031;-63
2021/04/12 03:36:46;;;;;;;77.80;44.10;;;17.40;67.30;;;;;;5095391;28;20058;-63
2021/04/12 03:39:19;;;;;;;73.85;41.95;;;17.40;67.20;;;;;;5094190;28;20071;-63
2021/04/12 03:42:16;;;;;;;76.47;44.65;;;17.30;67.30;;;;;;5094804;28;20047;-62
2021/04/12 03:45:12;;;;;;;70.22;40.40;;;17.30;67.20;;;;;;5095269;28;20033;-63
2021/04/12 03:47:43;;;;;;;70.85;41.20;;;17.30;67.00;;;;;;5094995;28;20035;-62
2021/04/12 03:50:33;;;;;;;69.70;41.00;;;17.30;67.20;;;;;;5094656;28;20426;-63
2021/04/12 03:52:59;;;;;;;66.85;39.17;;;17.20;67.20;;;;;;5094935;28;20020;-62
2021/04/12 03:55:59;;;;;;;63.55;37.15;;;17.20;67.20;;;;;;5095076;28;20028;-63
2021/04/12 03:58:52;;;;;;;65.72;39.58;;;17.20;67.20;;;;;;5094728;28;20028;-66
2021/04/12 04:01:36;;;;;;;65.60;37.08;;;17.20;67.30;;;;;;5094874;28;20039;-63
2021/04/12 04:04:30;;;;;;;63.28;36.30;;;17.10;68.10;;;;;;5094689;28;20125;-63
2021/04/12 04:07:05;;;;;;;67.53;39.47;;;17.10;67.50;;;;;;5094660;28;20069;-63
2021/04/12 04:09:48;;;;;;;63.65;37.15;;;17.10;67.40;;;;;;5095080;28;20113;-62
2021/04/12 04:12:35;;;;;;;64.63;37.80;;;17.10;67.50;;;;;;5094554;28;20024;-62
2021/04/12 04:15:29;;;;;;;62.15;36.25;;;17.10;67.40;;;;;;5094344;28;20084;-62
2021/04/12 04:18:26;;;;;;;58.00;36.60;;;17.10;67.40;;;;;;5094842;28;20056;-61
2021/04/12 04:21:16;;;;;;;64.47;36.72;;;17.10;67.60;;;;;;5093825;28;20427;-62
2021/04/12 04:24:01;;;;;;;60.25;36.08;;;17.10;67.40;;;;;;5094033;28;20553;-63
2021/04/12 04:27:01;;;;;;;60.47;35.42;;;17.10;67.70;;;;;;5093745;28;20028;-62
2021/04/12 04:29:45;;;;;;;55.35;32.85;;;17.10;67.50;;;;;;5094201;28;20071;-62
2021/04/12 04:32:42;;;;;;;58.63;33.70;;;17.20;67.30;;;;;;5094101;28;20031;-63
2021/04/12 04:35:28;;;;;;;56.67;30.63;;;17.20;67.60;;;;;;5094094;28;20066;-62
2021/04/12 04:38:30;;;;;;;59.33;31.25;;;17.20;67.40;;;;;;5094089;28;20494;-62
2021/04/12 04:41:33;;;;;;;52.78;30.98;;;17.20;67.50;;;;;;5094091;28;20479;-63
2021/04/12 04:44:12;;;;;;;51.33;31.10;;;17.20;67.50;;;;;;5093994;28;20055;-62
2021/04/12 04:46:54;;;;;;;45.45;29.55;;;17.20;67.60;;;;;;5093987;28;20028;-63
2021/04/12 04:49:47;;;;;;;52.13;30.27;;;17.10;67.50;;;;;;5094091;28;20028;-62
2021/04/12 04:52:51;;;;;;;48.55;31.65;;;17.10;67.40;;;;;;5092564;28;20079;-62
2021/04/12 04:55:36;;;;;;;50.33;28.67;;;17.10;67.40;;;;;;5094134;28;20380;-60
2021/04/12 04:58:21;;;;;;;50.05;27.70;;;17.00;67.60;;;;;;5093660;28;20031;-62
2021/04/12 05:00:50;;;;;;;46.55;28.23;;;17.00;67.50;;;;;;5093778;28;20131;-62
2021/04/12 05:03:50;;;;;;;51.22;29.52;;;17.00;67.80;;;;;;5093846;28;20372;-63
2021/04/12 05:06:22;;;;;;;;;;;17.00;67.80;;;;;;5094139;28;20020;-63
2021/04/12 05:09:08;;;;;;;50.03;27.55;;;17.00;67.70;;;;;;5093732;28;19908;-62
2021/04/12 05:12:08;;;;;;;48.55;28.58;;;16.90;67.70;;;;;;5093716;28;20035;-62
2021/04/12 05:15:07;;;;;;;48.17;27.23;;;16.90;67.80;;;;;;5093504;28;20028;-62
2021/04/12 05:17:33;;;;;;;45.33;26.35;;;17.00;68.10;;;;;;5093638;28;20115;-62
2021/04/12 05:20:23;;;;;;;47.85;26.15;;;17.00;68.10;;;;;;5093472;28;20111;-62
2021/04/12 05:23:01;;;;;;;42.03;24.60;;;17.00;68.00;;;;;;5093887;28;20476;-62
2021/04/12 05:26:04;;;;;;;42.05;24.83;;;17.00;67.90;;;;;;5093654;28;20032;-62
2021/04/12 05:28:42;;;;;;;42.58;26.20;;;17.00;67.70;;;;;;5092179;28;20036;-60
2021/04/12 05:31:11;;;;;;;42.63;25.25;;;17.10;67.80;;;;;;5093494;28;20101;-62
2021/04/12 05:34:14;;;;;;;41.20;25.27;;;17.20;67.60;;;;;;5093358;28;20024;-62
2021/04/12 05:36:57;;;;;;;41.17;24.90;;;17.30;67.30;;;;;;5093627;28;20024;-62
2021/04/12 05:39:49;;;;;;;44.88;24.33;;;17.60;66.80;;;;;;5097393;28;20380;-62
2021/04/12 05:42:24;;;;;;;41.17;22.98;;;17.90;65.40;;;;;;5097506;28;20050;-62
2021/04/12 05:45:26;;;;;;;36.13;21.90;;;17.90;65.30;;;;;;5097555;28;20399;-63
2021/04/12 05:48:10;;;;;;;38.80;22.92;;;17.90;65.40;;;;;;5097223;28;20468;-62
2021/04/12 05:50:38;;;;;;;40.25;22.70;;;18.00;65.20;;;;;;5097109;28;20028;-62
2021/04/12 05:53:25;;;;;;;36.38;22.35;;;18.10;65.00;;;;;;5097558;28;20024;-62
2021/04/12 05:56:28;;;;;;;34.90;20.33;;;18.10;64.90;;;;;;5097134;28;20024;-62
2021/04/12 05:59:17;;;;;;;38.03;21.02;;;18.10;64.90;;;;;;5097645;28;20468;-62
2021/04/12 06:02:04;;;;;;;32.42;19.13;;;18.10;65.00;;;;;;5097557;28;20032;-62
2021/04/12 06:04:55;;;;;;;35.83;20.38;;;18.10;64.90;;;;;;5097057;28;20048;-63
2021/04/12 06:08:03;;;;;;;37.70;22.45;;;18.10;65.10;;;;;;5096607;28;20098;-62
2021/04/12 06:10:50;;;;;;;36.13;20.73;;;18.00;65.20;;;;;;5097220;28;20070;-62
2021/04/12 06:13:18;;;;;;;33.17;18.88;;;18.00;65.30;;;;;;5097104;28;20071;-62
2021/04/12 06:16:26;;;;;;;34.15;20.23;;;18.00;65.20;;;;;;5097046;28;20078;-62
2021/04/12 06:19:33;;;;;;;35.15;20.13;;;17.90;65.30;;;;;;5097356;28;20102;-62
2021/04/12 06:22:17;;;;;;;32.80;19.20;;;17.90;65.30;;;;;;5096710;28;20115;-62
2021/04/12 06:25:04;;;;;;;33.03;19.60;;;17.90;65.40;;;;;;5097275;28;20032;-61
2021/04/12 06:28:06;;;;;;;31.38;18.73;;;17.90;65.40;;;;;;5096505;28;20055;-62
2021/04/12 06:30:48;;;;;;;32.72;18.48;;;17.90;65.20;;;;;;5096604;28;20093;-62
2021/04/12 06:33:22;;;;;;;30.98;17.48;;;18.00;65.20;;;;;;5096602;28;20028;-62
2021/04/12 06:36:08;;;;;;;33.30;19.60;;;18.00;65.10;;;;;;5096824;28;20064;-60
2021/04/12 06:38:55;;;;;;;31.15;18.45;;;18.00;65.00;;;;;;5096423;28;20034;-62
2021/04/12 06:42:15;;;;;;;31.17;17.75;;;18.00;65.00;;;;;;5096510;28;20124;-60
2021/04/12 06:44:59;;;;;;;29.08;18.70;;;18.00;65.00;;;;;;5094012;28;20444;-60
2021/04/12 06:47:38;;;;;;;32.00;18.60;;;18.00;65.00;;;;;;5095736;28;20434;-60
2021/04/12 06:50:22;;;;;;;28.88;16.85;;;18.00;64.60;;;;;;5095360;28;20039;-60
2021/04/12 06:53:31;;;;;;;27.80;17.02;;;18.00;64.60;;;;;;5096158;28;20081;-60
2021/04/12 06:55:57;;;;;;;25.35;15.52;;;18.00;64.70;;;;;;5096314;28;20034;-60
2021/04/12 06:58:43;;;;;;;29.92;16.70;;;17.90;65.10;;;;;;5096048;28;20548;-60
2021/04/12 07:01:21;;;;;;;27.77;16.40;;;17.80;65.10;;;;;;5096208;28;20028;-60
2021/04/12 07:04:15;;;;;;;29.05;17.00;;;17.80;65.40;;;;;;5095888;28;20047;-60
2021/04/12 07:06:43;;;;;;;27.67;15.05;;;17.70;65.60;;;;;;5096117;28;20071;-60
2021/04/12 07:09:47;;;;;;;26.17;15.20;;;17.70;65.60;;;;;;5096157;28;20051;-60
2021/04/12 07:12:37;;;;;;;25.45;14.35;;;17.70;65.80;;;;;;5096134;28;20091;-60
2021/04/12 07:15:47;;;;;;;23.92;13.90;;;17.70;65.80;;;;;;5096100;28;20020;-60
2021/04/12 07:18:43;;;;;;;23.63;13.57;;;17.60;65.80;;;;;;5096195;28;20063;-61
2021/04/12 07:21:27;;;;;;;23.40;13.90;;;17.60;65.60;;;;;;5095485;28;20480;-60
2021/04/12 07:24:19;;;;;;;27.95;15.65;;;17.60;65.70;;;;;;5095812;28;20070;-59
2021/04/12 07:27:36;;;;;;;25.30;14.70;;;17.60;65.90;;;;;;5095777;28;20026;-60
2021/04/12 07:30:20;;;;;;;26.85;13.20;;;17.60;65.00;;;;;;5093402;28;20068;-61
2021/04/12 07:33:24;;;;;;;30.48;14.50;;;17.50;66.90;;;;;;5095140;28;20028;-61
2021/04/12 07:36:10;;;;;;;27.30;13.05;;;17.70;66.20;;;;;;5095214;28;20543;-62
2021/04/12 07:39:01;;;;;;;32.28;13.63;;;17.80;66.10;;;;;;5094131;28;20024;-63
2021/04/12 07:42:03;;;;;;;58.80;30.77;;;17.90;66.00;;;;;;5092246;28;20043;-64
2021/04/12 07:45:11;;;;;;;83.57;42.65;;;17.90;65.30;;;;;;5093567;28;20036;-61
2021/04/12 07:47:51;;;;;;;83.65;42.03;;;17.90;64.50;;;;;;5095098;28;20031;-61
2021/04/12 07:50:42;;;;;;;94.35;50.38;;;17.90;63.00;;;;;;5094744;28;20059;-62
2021/04/12 07:53:33;;;;;;;94.75;54.35;;;17.90;62.40;;;;;;5093672;28;20036;-60
2021/04/12 07:56:13;;;;;;;95.78;52.38;;;17.80;62.70;;;;;;5094881;28;20035;-60
2021/04/12 07:59:16;;;;;;;74.13;43.15;;;17.80;62.70;;;;;;5094828;28;20046;-62
2021/04/12 08:01:45;;;;;;;69.13;35.05;;;17.70;62.60;;;;;;5094385;28;20053;-61
2021/04/12 08:04:35;;;;;;;51.13;27.77;;;17.60;62.70;;;;;;5093809;28;20035;-63
2021/04/12 08:07:22;;;;;;;44.58;22.42;;;17.60;62.40;;;;;;5094684;28;20483;-63
2021/04/12 08:09:59;;;;;;;40.58;21.48;;;17.60;62.50;;;;;;5093356;28;20039;-62
2021/04/12 08:12:53;;;;;;;36.63;19.00;;;17.60;62.50;;;;;;5093512;28;20484;-62
2021/04/12 08:15:45;;;;;;;35.95;19.30;;;17.50;62.60;;;;;;5094341;28;20081;-62
2021/04/12 08:18:33;;;;;;;35.75;18.25;;;17.50;62.80;;;;;;5094142;28;20363;-62
2021/04/12 08:21:07;;;;;;;38.42;18.02;;;17.50;62.90;;;;;;5093195;28;20460;-63
2021/04/12 08:23:51;;;;;;;32.75;17.15;;;17.50;63.00;;;;;;5093928;28;20464;-62
2021/04/12 08:26:23;;;;;;;31.60;15.25;;;17.50;63.00;;;;;;5093775;28;20024;-62
2021/04/12 08:29:12;;;;;;;26.45;14.07;;;17.50;63.00;;;;;;5093685;28;20024;-63
2021/04/12 08:32:12;;;;;;;25.63;12.55;;;17.50;62.70;;;;;;5093856;28;20528;-62
2021/04/12 08:34:46;;;;;;;23.02;11.35;;;17.50;62.90;;;;;;5094223;28;20526;-62
2021/04/12 08:37:50;;;;;;;17.73;10.10;;;17.50;62.70;;;;;;5094002;28;20020;-62
2021/04/12 08:40:21;;;;;;;19.42;9.77;;;17.50;62.40;;;;;;5093953;28;20081;-62
2021/04/12 08:42:56;;;;;;;16.83;8.70;;;17.50;62.10;;;;;;5093933;28;20031;-62
2021/04/12 08:45:51;;;;;;;15.45;7.93;;;17.50;62.10;;;;;;5094021;28;20023;-64
2021/04/12 08:48:34;;;;;;;14.57;6.85;;;17.50;61.70;;;;;;5093867;28;20028;-64
2021/04/12 08:51:26;;;;;;;11.25;6.10;;;17.60;61.60;;;;;;5093909;28;20079;-64
2021/04/12 08:54:11;;;;;;;12.30;6.35;;;17.50;61.50;;;;;;5093049;28;20050;-65
2021/04/12 08:57:06;;;;;;;10.52;5.30;;;17.50;61.40;;;;;;5093662;28;20074;-64
2021/04/12 09:00:17;;;;;;;9.07;5.07;;;17.50;61.40;;;;;;5094276;28;20375;-64
2021/04/12 09:02:57;;;;;;;8.65;3.97;;;17.50;61.30;;;;;;5093748;28;20040;-63
2021/04/12 09:05:47;;;;;;;8.68;4.97;;;17.40;61.40;;;;;;5093586;28;20380;-63
2021/04/12 09:08:37;;;;;;;9.55;4.18;;;17.40;61.40;;;;;;5093935;28;20031;-63
2021/04/12 09:11:40;;;;;;;9.85;4.55;;;17.40;61.80;;;;;;5094073;28;20490;-61
2021/04/12 09:14:24;;;;;;;9.77;4.43;;;17.40;61.90;;;;;;5097129;28;20032;-63
2021/04/12 09:17:09;;;;;;;10.35;4.35;;;17.40;62.00;;;;;;5098187;28;20024;-64
2021/04/12 09:19:56;;;;;;;12.63;4.10;;;17.40;62.10;;;;;;5098030;28;20028;-63
2021/04/12 09:22:55;;;;;;;11.48;4.95;;;17.40;62.30;;;;;;5097960;28;20036;-63
2021/04/12 09:25:57;;;;;;;9.73;3.28;;;17.40;62.50;;;;;;5098318;28;20020;-63
2021/04/12 09:28:52;;;;;;;9.63;3.63;;;17.40;62.70;;;;;;5097781;28;20422;-63
2021/04/12 09:31:45;;;;;;;9.02;3.38;;;17.30;62.90;;;;;;5097610;28;20496;-63
2021/04/12 09:34:27;;;;;;;9.63;4.18;;;17.30;63.00;;;;;;5097781;28;20046;-63
2021/04/12 09:37:30;;;;;;;8.77;3.72;;;17.40;63.00;;;;;;5095114;28;20852;-64
2021/04/12 09:40:21;;;;;;;10.90;3.35;;;17.40;63.00;;;;;;5097139;28;20050;-63
2021/04/12 09:43:10;;;;;;;8.75;3.55;;;17.40;62.60;;;;;;5097519;28;20027;-63
2021/04/12 09:46:13;;;;;;;17.02;4.28;;;17.40;62.40;;;;;;5096832;28;20375;-64
2021/04/12 09:49:16;;;;;;;7.85;4.20;;;17.50;62.30;;;;;;5097315;28;20047;-63
2021/04/12 09:52:20;;;;;;;11.65;4.70;;;17.50;62.10;;;;;;5097261;28;20047;-63
2021/04/12 09:55:23;;;;;;;7.65;3.75;;;17.50;62.20;;;;;;5096384;28;20087;-63
2021/04/12 09:58:14;;;;;;;7.35;3.35;;;17.50;62.30;;;;;;5097305;28;20020;-63
2021/04/12 10:00:46;;;;;;;9.40;3.35;;;17.50;62.30;;;;;;5095804;28;20048;-63
2021/04/12 10:03:39;;;;;;;10.90;3.55;;;17.40;62.30;;;;;;5096785;28;20586;-63
2021/04/12 10:06:36;;;;;;;9.32;3.58;;;17.40;62.50;;;;;;5096634;28;20036;-66
2021/04/12 10:09:33;;;;;;;8.10;3.60;;;17.40;62.60;;;;;;5096635;28;20046;-61
2021/04/12 10:12:23;;;;;;;7.85;3.28;;;17.40;62.60;;;;;;5096887;28;20032;-63
2021/04/12 10:15:00;;;;;;;10.38;3.65;;;17.40;62.60;;;;;;5096130;28;20028;-63
2021/04/12 10:17:47;;;;;;;7.80;3.15;;;17.30;62.60;;;;;;5096873;28;20078;-63
2021/04/12 10:20:23;;;;;;;7.82;3.00;;;17.30;62.80;;;;;;5096484;28;20036;-63
2021/04/12 10:23:05;;;;;;;8.30;3.60;;;17.30;63.00;;;;;;5096028;28;20020;-64
2021/04/12 10:25:44;;;;;;;9.95;3.25;;;17.30;62.80;;;;;;5096609;28;20093;-64
2021/04/12 10:28:29;;;;;;;8.25;3.17;;;17.30;63.10;;;;;;5096912;28;20028;-63
2021/04/12 10:31:27;;;;;;;7.78;2.78;;;17.20;63.30;;;;;;5096345;28;20056;-63
2021/04/12 10:34:17;;;;;;;6.85;3.22;;;17.20;63.30;;;;;;5096405;28;20099;-64
2021/04/12 10:37:00;;;;;;;8.93;3.20;;;17.20;63.60;;;;;;5095940;28;20070;-62
2021/04/12 10:39:44;;;;;;;19.83;5.18;;;17.20;63.80;;;;;;5094942;28;20463;-63
2021/04/12 10:42:29;;;;;;;15.93;4.47;;;17.30;63.80;;;;;;5096213;28;20032;-62
2021/04/12 10:45:07;;;;;;;18.20;4.07;;;17.40;63.40;;;;;;5095711;28;20107;-64
2021/04/12 10:48:14;;;;;;;21.90;4.75;;;17.60;63.20;;;;;;5096205;28;20028;-61
2021/04/12 10:50:58;;;;;;;17.67;3.47;;;17.70;62.90;;;;;;5094068;28;20044;-63
2021/04/12 10:54:02;;;;;;;12.07;4.00;;;17.80;62.50;;;;;;5090443;28;20085;-64
2021/04/12 10:56:37;;;;;;;17.63;3.30;;;17.80;62.40;;;;;;5075623;28;20032;-67
2021/04/12 10:59:34;;;;;;;21.45;4.28;;;17.90;62.40;;;;;;5075654;28;20028;-66
2021/04/12 11:02:03;;;;;;;16.52;4.95;;;18.00;62.20;;;;;;5088782;28;20383;-64
2021/04/12 11:04:49;;;;;;;10.27;5.18;;;18.10;62.30;;;;;;5094998;28;20044;-74
2021/04/12 11:07:48;;;;;;;46.25;20.30;;;18.20;63.00;;;;;;5095444;28;20020;-68
2021/04/12 11:10:18;;;;;;;57.47;30.45;;;18.20;62.50;;;;;;5095710;28;20055;-63
2021/04/12 11:12:52;;;;;;;82.45;39.50;;;18.30;62.20;;;;;;5095425;28;20028;-63
2021/04/12 11:15:33;;;;;;;115.93;62.50;;;18.20;62.00;;;;;;5095358;28;20032;-64
2021/04/12 11:18:24;;;;;;;107.60;59.40;;;18.30;62.20;;;;;;5092301;28;20465;-62
2021/04/12 11:20:55;;;;;;;;;;;18.30;63.00;;;;;;5075240;28;20111;-62
2021/04/12 11:23:47;;;;;;;94.65;51.72;;;18.30;63.00;;;;;;5075355;28;19908;-64
2021/04/12 11:26:27;;;;;;;94.53;50.25;;;18.30;62.90;;;;;;5075135;28;20024;-62
2021/04/12 11:29:26;;;;;;;96.50;53.25;;;18.30;63.10;;;;;;5074644;28;20021;-62
2021/04/12 11:32:25;;;;;;;89.25;50.33;;;18.30;63.10;;;;;;5071192;28;20044;-63
2021/04/12 11:34:56;;;;;;;260.42;146.20;;;18.30;63.00;;;;;;5073716;28;20385;-67
2021/04/12 11:37:50;;;;;;;219.30;125.45;;;18.40;62.80;;;;;;5074823;28;20024;-64
2021/04/12 11:40:27;;;;;;;200.88;111.68;;;18.40;62.40;;;;;;5074837;28;20032;-65
2021/04/12 11:43:06;;;;;;;215.77;121.30;;;18.60;62.10;;;;;;5074920;28;20032;-67
2021/04/12 11:46:15;;;;;;;188.95;105.72;;;18.60;62.20;;;;;;5075530;28;20453;-66
2021/04/12 11:48:54;;;;;;;164.68;93.97;;;18.50;62.30;;;;;;5057462;28;20033;-65
2021/04/12 11:51:52;;;;;;;164.82;92.28;;;18.40;62.30;;;;;;5074166;28;20465;-65
2021/04/12 11:54:33;;;;;;;145.75;87.78;;;18.40;62.50;;;;;;5074552;28;20040;-65
2021/04/12 11:57:13;;;;;;;150.30;84.82;;;18.30;62.40;;;;;;5074623;28;20016;-65
2021/04/12 12:00:06;;;;;;;139.88;80.13;;;18.20;62.50;;;;;;5075160;28;20082;-65
2021/04/12 12:03:08;;;;;;;132.73;77.60;;;18.20;62.70;;;;;;5074477;28;20416;-65
2021/04/12 12:05:38;;;;;;;136.88;75.00;;;18.20;62.80;;;;;;5073969;28;20426;-65
2021/04/12 12:08:10;;;;;;;131.40;77.28;;;18.10;62.70;;;;;;5074450;28;20024;-65
2021/04/12 12:10:58;;;;;;;115.55;69.85;;;18.10;62.80;;;;;;5074749;28;20361;-65
2021/04/12 12:13:44;;;;;;;119.18;68.75;;;18.10;63.00;;;;;;5073458;28;20024;-65
2021/04/12 12:16:31;;;;;;;119.72;69.88;;;18.00;62.80;;;;;;5056960;28;20407;-65
2021/04/12 12:19:05;;;;;;;115.43;69.05;;;18.00;62.80;;;;;;5074174;28;20517;-65
2021/04/12 12:21:49;;;;;;;107.10;63.45;;;18.00;62.80;;;;;;5073478;28;20042;-65
2021/04/12 12:24:30;;;;;;;117.30;67.80;;;18.00;62.90;;;;;;5074168;28;20098;-65
2021/04/12 12:27:24;;;;;;;112.78;65.63;;;17.90;63.00;;;;;;5073321;28;20032;-63
2021/04/12 12:29:54;;;;;;;178.50;108.70;;;17.90;63.00;;;;;;5073811;28;20044;-64
2021/04/12 12:32:32;;;;;;;165.70;100.85;;;17.90;63.30;;;;;;5074353;28;20055;-64
2021/04/12 12:35:26;;;;;;;164.68;104.72;;;18.00;63.30;;;;;;5073450;28;20033;-65
2021/04/12 12:38:10;;;;;;;209.77;125.38;;;18.00;63.20;;;;;;5073644;28;20051;-64
2021/04/12 12:40:42;;;;;;;216.07;134.07;;;18.10;63.20;;;;;;5081040;28;20032;-63
2021/04/12 12:43:13;;;;;;;237.50;148.90;;;18.10;63.10;;;;;;5093568;28;20063;-64
2021/04/12 12:45:41;;;;;;;212.15;135.25;;;18.10;63.10;;;;;;5093947;28;20028;-74
2021/04/12 12:48:27;;;;;;;201.52;123.25;;;18.10;63.30;;;;;;5093159;28;20062;-63
2021/04/12 12:51:16;;;;;;;183.73;115.30;;;18.10;63.90;;;;;;5093224;28;20035;-63
2021/04/12 12:53:58;;;;;;;179.40;106.53;;;18.10;64.70;;;;;;5094002;28;20052;-62
2021/04/12 12:56:28;;;;;;;170.75;103.38;;;18.20;64.50;;;;;;5093414;28;20024;-63
2021/04/12 12:59:02;;;;;;;173.88;102.43;;;18.20;63.80;;;;;;5094282;28;20028;-62
2021/04/12 13:01:38;;;;;;;170.73;101.75;;;18.20;63.80;;;;;;5093739;28;20046;-63
2021/04/12 13:04:14;;;;;;;98.82;60.47;;;18.20;63.80;;;;;;5093756;28;20028;-63
2021/04/12 13:06:42;;;;;;;91.28;58.53;;;18.00;60.20;;;;;;5093837;28;20030;-63
2021/04/12 13:09:22;;;;;;;71.55;45.72;;;17.90;60.90;;;;;;5093562;28;20032;-63
2021/04/12 13:12:13;;;;;;;66.07;41.05;;;17.80;61.10;;;;;;5093258;28;20051;-63
2021/04/12 13:14:43;;;;;;;;;;;17.70;60.00;;;;;;5093932;28;20036;-63
2021/04/12 13:17:34;;;;;;;44.10;26.90;;;17.70;59.60;;;;;;5093586;28;19904;-63
2021/04/12 13:20:20;;;;;;;55.22;33.08;;;17.50;59.60;;;;;;5092846;28;20274;-63
2021/04/12 13:22:50;;;;;;;43.15;25.73;;;17.40;59.80;;;;;;5094131;28;20032;-61
2021/04/12 13:25:16;;;;;;;39.53;25.02;;;17.40;59.90;;;;;;5093749;28;20055;-62
2021/04/12 13:27:50;;;;;;;38.75;25.08;;;17.50;59.90;;;;;;5092996;28;20109;-62
2021/04/12 13:30:23;;;;;;;59.53;38.28;;;17.50;59.50;;;;;;5093767;28;20104;-62
2021/04/12 13:33:06;;;;;;;58.17;35.20;;;17.60;59.70;;;;;;5093360;28;20376;-62
2021/04/12 13:35:35;;;;;;;57.03;36.88;;;17.60;59.80;;;;;;5092894;28;20035;-62
2021/04/12 13:38:29;;;;;;;122.55;74.68;;;17.60;60.50;;;;;;5093223;28;20098;-62
2021/04/12 13:41:09;;;;;;;105.30;65.78;;;17.70;60.60;;;;;;5092070;28;20032;-62
2021/04/12 13:43:39;;;;;;;117.93;68.93;;;17.70;60.70;;;;;;5093342;28;20038;-62
2021/04/12 13:46:20;;;;;;;120.13;76.70;;;17.70;60.70;;;;;;5093569;28;20353;-63
2021/04/12 13:49:01;;;;;;;82.60;52.75;;;17.80;60.10;;;;;;5092447;28;20076;-66
2021/04/12 13:51:40;;;;;;;96.82;64.32;;;17.80;59.50;;;;;;5090853;28;20452;-62
2021/04/12 13:54:30;;;;;;;112.93;73.35;;;17.80;59.10;;;;;;5093878;28;20070;-62
2021/04/12 13:57:03;;;;;;;95.78;60.83;;;17.80;59.20;;;;;;5092922;28;20028;-62
2021/04/12 13:59:41;;;;;;;94.57;63.30;;;17.70;59.10;;;;;;5095864;28;20077;-67